createdAt,value
2017-09-22T00:00:36.487Z,958.3
2017-09-22T00:01:36.478Z,958.29
2017-09-22T00:02:36.468Z,958.3
2017-09-22T00:03:36.458Z,958.28
2017-09-22T00:04:36.447Z,958.3
2017-09-22T00:05:36.437Z,958.29
2017-09-22T00:06:36.429Z,958.29
2017-09-22T00:07:36.437Z,958.31
2017-09-22T00:08:36.408Z,958.33
2017-09-22T00:09:36.398Z,958.3
2017-09-22T00:10:36.387Z,958.31
2017-09-22T00:11:36.436Z,958.29
2017-09-22T00:12:36.368Z,958.3
2017-09-22T00:13:36.357Z,958.29
2017-09-22T00:14:36.347Z,958.32
2017-09-22T00:15:36.336Z,958.33
2017-09-22T00:16:36.337Z,958.31
2017-09-22T00:17:36.318Z,958.32
2017-09-22T00:18:36.329Z,958.34
2017-09-22T00:19:36.297Z,958.32
2017-09-22T00:20:36.293Z,958.33
2017-09-22T00:21:36.277Z,958.29
2017-09-22T00:22:36.265Z,958.34
2017-09-22T00:23:36.339Z,958.33
2017-09-22T00:24:36.253Z,958.33
2017-09-22T00:25:36.255Z,958.34
2017-09-22T00:26:36.227Z,958.33
2017-09-22T00:27:36.218Z,958.34
2017-09-22T00:28:36.203Z,958.29
2017-09-22T00:29:36.193Z,958.38
2017-09-22T00:30:36.182Z,958.34
2017-09-22T00:31:36.192Z,958.29
2017-09-22T00:32:36.162Z,958.32
2017-09-22T00:33:36.150Z,958.29
2017-09-22T00:34:36.158Z,958.29
2017-09-22T00:35:36.129Z,958.3
2017-09-22T00:36:36.119Z,958.27
2017-09-22T00:37:36.109Z,958.28
2017-09-22T00:38:36.102Z,958.31
2017-09-22T00:39:36.089Z,958.27
2017-09-22T00:40:36.078Z,958.27
2017-09-22T00:41:36.065Z,958.24
2017-09-22T00:42:36.058Z,958.28
2017-09-22T00:43:36.047Z,958.25
2017-09-22T00:44:36.036Z,958.22
2017-09-22T00:45:36.032Z,958.25
2017-09-22T00:46:36.021Z,958.22
2017-09-22T00:47:36.005Z,958.25
2017-09-22T00:48:36.000Z,958.24
2017-09-22T00:49:35.982Z,958.24
2017-09-22T00:50:35.973Z,958.22
2017-09-22T00:51:35.962Z,958.2
2017-09-22T00:52:35.951Z,958.22
2017-09-22T00:53:35.960Z,958.25
2017-09-22T00:54:35.930Z,958.27
2017-09-22T00:55:35.919Z,958.24
2017-09-22T00:56:35.908Z,958.23
2017-09-22T00:57:35.898Z,958.22
2017-09-22T00:58:35.891Z,958.22
2017-09-22T00:59:35.877Z,958.23
2017-09-22T01:00:35.868Z,958.19
2017-09-22T01:01:35.856Z,958.23
2017-09-22T01:02:35.846Z,958.2
2017-09-22T01:03:35.836Z,958.23
2017-09-22T01:04:35.826Z,958.23
2017-09-22T01:05:35.814Z,958.2
2017-09-22T01:06:35.803Z,958.2
2017-09-22T01:07:35.797Z,958.23
2017-09-22T01:08:35.782Z,958.19
2017-09-22T01:09:35.772Z,958.23
2017-09-22T01:10:35.759Z,958.21
2017-09-22T01:11:35.750Z,958.17
2017-09-22T01:12:35.739Z,958.18
2017-09-22T01:13:35.729Z,958.16
2017-09-22T01:14:35.717Z,958.15
2017-09-22T01:15:35.708Z,958.13
2017-09-22T01:16:35.737Z,958.13
2017-09-22T01:17:35.800Z,958.11
2017-09-22T01:18:35.740Z,958.12
2017-09-22T01:19:35.695Z,958.1
2017-09-22T01:20:35.737Z,958.12
2017-09-22T01:21:35.649Z,958.09
2017-09-22T01:22:35.660Z,958.11
2017-09-22T01:23:35.668Z,958.07
2017-09-22T01:24:35.653Z,958.06
2017-09-22T01:25:35.661Z,958.11
2017-09-22T01:26:35.637Z,958.06
2017-09-22T01:27:35.630Z,958.07
2017-09-22T01:28:35.577Z,958.06
2017-09-22T01:29:35.587Z,958.08
2017-09-22T01:30:35.572Z,958.04
2017-09-22T01:31:35.556Z,958.09
2017-09-22T01:32:35.526Z,958.09
2017-09-22T01:33:35.515Z,958.09
2017-09-22T01:34:35.561Z,958.11
2017-09-22T01:35:35.545Z,958.09
2017-09-22T01:36:35.543Z,958.07
2017-09-22T01:37:35.516Z,958.1
2017-09-22T01:38:35.547Z,958.09
2017-09-22T01:39:35.451Z,958.03
2017-09-22T01:40:35.483Z,958
2017-09-22T01:41:35.495Z,958
2017-09-22T01:42:35.509Z,958.02
2017-09-22T01:43:35.632Z,957.98
2017-09-22T01:44:35.464Z,957.97
2017-09-22T01:45:35.414Z,958
2017-09-22T01:46:35.417Z,957.98
2017-09-22T01:47:35.460Z,957.97
2017-09-22T01:48:35.386Z,957.97
2017-09-22T01:49:35.384Z,957.95
2017-09-22T01:50:35.381Z,957.97
2017-09-22T01:51:35.320Z,957.98
2017-09-22T01:52:35.334Z,957.97
2017-09-22T01:53:35.383Z,958
2017-09-22T01:54:35.325Z,957.96
2017-09-22T01:55:35.357Z,957.95
2017-09-22T01:56:35.289Z,957.94
2017-09-22T01:57:35.271Z,957.95
2017-09-22T01:58:35.281Z,957.91
2017-09-22T01:59:35.330Z,957.94
2017-09-22T02:00:35.247Z,957.93
2017-09-22T02:01:35.248Z,957.97
2017-09-22T02:02:35.203Z,957.92
2017-09-22T02:03:35.204Z,957.96
2017-09-22T02:04:35.221Z,957.91
2017-09-22T02:05:35.262Z,957.95
2017-09-22T02:06:35.160Z,957.97
2017-09-22T02:07:35.191Z,957.93
2017-09-22T02:08:35.138Z,957.93
2017-09-22T02:09:35.168Z,957.93
2017-09-22T02:10:35.150Z,957.94
2017-09-22T02:11:35.126Z,957.96
2017-09-22T02:12:35.144Z,957.97
2017-09-22T02:13:35.171Z,957.96
2017-09-22T02:14:35.133Z,957.99
2017-09-22T02:15:35.099Z,957.99
2017-09-22T02:16:35.112Z,958.05
2017-09-22T02:17:35.085Z,957.97
2017-09-22T02:18:35.092Z,958
2017-09-22T02:19:35.130Z,957.97
2017-09-22T02:20:35.036Z,957.97
2017-09-22T02:21:35.039Z,957.99
2017-09-22T02:22:35.042Z,957.98
2017-09-22T02:23:35.020Z,957.97
2017-09-22T02:24:35.053Z,957.98
2017-09-22T02:25:35.076Z,957.98
2017-09-22T02:26:34.951Z,957.98
2017-09-22T02:27:34.947Z,958
2017-09-22T02:28:34.930Z,958
2017-09-22T02:29:34.921Z,957.98
2017-09-22T02:30:34.910Z,957.94
2017-09-22T02:31:34.899Z,957.92
2017-09-22T02:32:34.890Z,957.92
2017-09-22T02:33:34.880Z,957.92
2017-09-22T02:34:34.869Z,957.95
2017-09-22T02:35:34.857Z,957.95
2017-09-22T02:36:34.847Z,957.95
2017-09-22T02:37:34.850Z,957.93
2017-09-22T02:38:34.826Z,957.97
2017-09-22T02:39:34.816Z,957.99
2017-09-22T02:40:34.806Z,957.95
2017-09-22T02:41:34.801Z,957.96
2017-09-22T02:42:34.786Z,957.95
2017-09-22T02:43:34.783Z,957.99
2017-09-22T02:44:34.766Z,957.98
2017-09-22T02:45:34.754Z,957.97
2017-09-22T02:46:34.743Z,957.95
2017-09-22T02:47:41.001Z,957.99
2017-09-22T02:48:34.725Z,957.96
2017-09-22T02:49:34.715Z,957.92
2017-09-22T02:50:34.704Z,957.91
2017-09-22T02:51:34.695Z,957.9
2017-09-22T02:52:34.684Z,957.88
2017-09-22T02:53:34.674Z,957.9
2017-09-22T02:54:34.664Z,957.85
2017-09-22T02:55:34.652Z,957.88
2017-09-22T02:56:34.644Z,957.89
2017-09-22T02:57:34.634Z,957.85
2017-09-22T02:58:34.624Z,957.89
2017-09-22T02:59:34.610Z,957.88
2017-09-22T03:00:34.601Z,957.84
2017-09-22T03:01:34.590Z,957.81
2017-09-22T03:02:34.582Z,957.85
2017-09-22T03:03:34.570Z,957.84
2017-09-22T03:04:34.559Z,957.79
2017-09-22T03:05:34.551Z,957.78
2017-09-22T03:06:34.540Z,957.77
2017-09-22T03:07:34.529Z,957.76
2017-09-22T03:08:34.520Z,957.79
2017-09-22T03:09:34.514Z,957.76
2017-09-22T03:10:34.498Z,957.73
2017-09-22T03:11:34.488Z,957.69
2017-09-22T03:12:34.478Z,957.71
2017-09-22T03:13:34.470Z,957.72
2017-09-22T03:14:34.464Z,957.76
2017-09-22T03:15:34.447Z,957.73
2017-09-22T03:16:34.439Z,957.76
2017-09-22T03:17:34.432Z,957.76
2017-09-22T03:18:34.416Z,957.75
2017-09-22T03:19:34.407Z,957.75
2017-09-22T03:20:34.397Z,957.76
2017-09-22T03:21:34.386Z,957.75
2017-09-22T03:22:34.377Z,957.77
2017-09-22T03:23:34.367Z,957.75
2017-09-22T03:24:34.356Z,957.77
2017-09-22T03:25:34.346Z,957.77
2017-09-22T03:26:34.335Z,957.79
2017-09-22T03:27:34.330Z,957.81
2017-09-22T03:28:34.317Z,957.78
2017-09-22T03:29:34.304Z,957.8
2017-09-22T03:30:34.296Z,957.82
2017-09-22T03:31:34.286Z,957.8
2017-09-22T03:32:34.275Z,957.81
2017-09-22T03:33:34.264Z,957.8
2017-09-22T03:34:34.256Z,957.82
2017-09-22T03:35:34.251Z,957.77
2017-09-22T03:36:34.234Z,957.83
2017-09-22T03:37:34.225Z,957.82
2017-09-22T03:38:34.215Z,957.86
2017-09-22T03:39:34.205Z,957.82
2017-09-22T03:40:34.194Z,957.87
2017-09-22T03:41:34.185Z,957.84
2017-09-22T03:42:34.174Z,957.8
2017-09-22T03:43:34.163Z,957.84
2017-09-22T03:44:34.153Z,957.83
2017-09-22T03:45:34.144Z,957.82
2017-09-22T03:46:34.141Z,957.83
2017-09-22T03:47:34.130Z,957.81
2017-09-22T03:48:34.113Z,957.81
2017-09-22T03:49:34.104Z,957.82
2017-09-22T03:50:34.094Z,957.82
2017-09-22T03:51:34.082Z,957.85
2017-09-22T03:52:34.072Z,957.83
2017-09-22T03:53:34.062Z,957.84
2017-09-22T03:54:34.053Z,957.84
2017-09-22T03:55:34.041Z,957.82
2017-09-22T03:56:34.045Z,957.84
2017-09-22T03:57:34.022Z,957.83
2017-09-22T03:58:34.011Z,957.86
2017-09-22T03:59:34.016Z,957.85
2017-09-22T04:00:33.994Z,957.83
2017-09-22T04:01:33.988Z,957.86
2017-09-22T04:02:33.969Z,957.82
2017-09-22T04:03:33.959Z,957.78
2017-09-22T04:04:33.949Z,957.77
2017-09-22T04:05:33.938Z,957.75
2017-09-22T04:06:33.974Z,957.76
2017-09-22T04:07:33.917Z,957.71
2017-09-22T04:08:33.909Z,957.71
2017-09-22T04:09:33.897Z,957.7
2017-09-22T04:10:33.887Z,957.72
2017-09-22T04:11:33.876Z,957.75
2017-09-22T04:12:33.874Z,957.73
2017-09-22T04:13:33.859Z,957.76
2017-09-22T04:14:33.846Z,957.73
2017-09-22T04:15:33.836Z,957.77
2017-09-22T04:16:33.823Z,957.8
2017-09-22T04:17:33.814Z,957.78
2017-09-22T04:18:33.805Z,957.78
2017-09-22T04:19:33.793Z,957.77
2017-09-22T04:20:33.782Z,957.85
2017-09-22T04:21:33.771Z,957.85
2017-09-22T04:22:33.763Z,957.83
2017-09-22T04:23:33.751Z,957.8
2017-09-22T04:24:33.741Z,957.79
2017-09-22T04:25:33.731Z,957.81
2017-09-22T04:26:33.720Z,957.83
2017-09-22T04:27:33.710Z,957.78
2017-09-22T04:28:33.697Z,957.78
2017-09-22T04:29:33.689Z,957.76
2017-09-22T04:30:33.693Z,957.78
2017-09-22T04:31:33.668Z,957.75
2017-09-22T04:32:33.655Z,957.72
2017-09-22T04:33:33.647Z,957.75
2017-09-22T04:34:33.634Z,957.71
2017-09-22T04:35:33.623Z,957.71
2017-09-22T04:36:33.613Z,957.75
2017-09-22T04:37:33.602Z,957.72
2017-09-22T04:38:33.592Z,957.76
2017-09-22T04:39:33.598Z,957.77
2017-09-22T04:40:33.570Z,957.72
2017-09-22T04:41:33.561Z,957.7
2017-09-22T04:42:33.548Z,957.73
2017-09-22T04:43:33.537Z,957.73
2017-09-22T04:44:33.536Z,957.7
2017-09-22T04:45:33.525Z,957.74
2017-09-22T04:46:33.506Z,957.73
2017-09-22T04:47:33.494Z,957.74
2017-09-22T04:48:33.502Z,957.77
2017-09-22T04:49:33.472Z,957.73
2017-09-22T04:50:33.462Z,957.74
2017-09-22T04:51:33.451Z,957.72
2017-09-22T04:52:33.441Z,957.71
2017-09-22T04:53:33.429Z,957.71
2017-09-22T04:54:33.424Z,957.74
2017-09-22T04:55:33.408Z,957.73
2017-09-22T04:56:33.405Z,957.67
2017-09-22T04:57:33.386Z,957.66
2017-09-22T04:58:33.377Z,957.67
2017-09-22T04:59:33.366Z,957.66
2017-09-22T05:00:33.354Z,957.68
2017-09-22T05:01:33.343Z,957.68
2017-09-22T05:02:33.334Z,957.63
2017-09-22T05:03:33.323Z,957.67
2017-09-22T05:04:33.311Z,957.68
2017-09-22T05:05:33.301Z,957.69
2017-09-22T05:06:33.290Z,957.66
2017-09-22T05:07:33.278Z,957.69
2017-09-22T05:08:33.269Z,957.67
2017-09-22T05:09:33.258Z,957.65
2017-09-22T05:10:33.247Z,957.68
2017-09-22T05:11:33.235Z,957.65
2017-09-22T05:12:33.225Z,957.67
2017-09-22T05:13:33.216Z,957.68
2017-09-22T05:14:33.205Z,957.67
2017-09-22T05:15:33.193Z,957.67
2017-09-22T05:16:33.182Z,957.73
2017-09-22T05:17:33.171Z,957.68
2017-09-22T05:18:33.161Z,957.69
2017-09-22T05:19:33.176Z,957.71
2017-09-22T05:20:33.141Z,957.73
2017-09-22T05:21:33.129Z,957.7
2017-09-22T05:22:33.122Z,957.69
2017-09-22T05:23:33.111Z,957.72
2017-09-22T05:24:33.103Z,957.71
2017-09-22T05:25:33.087Z,957.67
2017-09-22T05:26:33.076Z,957.66
2017-09-22T05:27:33.065Z,957.66
2017-09-22T05:28:33.075Z,957.66
2017-09-22T05:29:33.045Z,957.66
2017-09-22T05:30:33.034Z,957.66
2017-09-22T05:31:33.024Z,957.68
2017-09-22T05:32:33.014Z,957.69
2017-09-22T05:33:33.004Z,957.69
2017-09-22T05:34:32.994Z,957.74
2017-09-22T05:35:32.983Z,957.72
2017-09-22T05:36:32.972Z,957.72
2017-09-22T05:37:32.961Z,957.7
2017-09-22T05:38:32.951Z,957.72
2017-09-22T05:39:32.940Z,957.74
2017-09-22T05:40:32.928Z,957.75
2017-09-22T05:41:32.919Z,957.76
2017-09-22T05:42:32.909Z,957.78
2017-09-22T05:43:32.898Z,957.79
2017-09-22T05:44:32.887Z,957.79
2017-09-22T05:45:32.878Z,957.78
2017-09-22T05:46:32.866Z,957.74
2017-09-22T05:47:32.858Z,957.77
2017-09-22T05:48:32.847Z,957.74
2017-09-22T05:49:32.837Z,957.8
2017-09-22T05:50:32.858Z,957.75
2017-09-22T05:51:32.813Z,957.79
2017-09-22T05:52:32.821Z,957.81
2017-09-22T05:53:32.795Z,957.79
2017-09-22T05:54:32.783Z,957.81
2017-09-22T05:55:32.774Z,957.82
2017-09-22T05:56:32.765Z,957.81
2017-09-22T05:57:32.755Z,957.8
2017-09-22T05:58:32.745Z,957.87
2017-09-22T05:59:32.733Z,957.88
2017-09-22T06:00:32.723Z,957.89
2017-09-22T06:01:32.717Z,957.89
2017-09-22T06:02:32.703Z,957.86
2017-09-22T06:03:32.693Z,957.83
2017-09-22T06:04:32.683Z,957.82
2017-09-22T06:05:32.674Z,957.88
2017-09-22T06:06:32.662Z,957.83
2017-09-22T06:07:32.656Z,957.82
2017-09-22T06:08:32.644Z,957.87
2017-09-22T06:09:32.633Z,957.88
2017-09-22T06:10:32.623Z,957.86
2017-09-22T06:11:32.619Z,957.9
2017-09-22T06:12:32.603Z,957.9
2017-09-22T06:13:32.593Z,957.86
2017-09-22T06:14:32.583Z,957.89
2017-09-22T06:15:32.573Z,957.9
2017-09-22T06:16:32.564Z,957.92
2017-09-22T06:17:32.554Z,957.94
2017-09-22T06:18:32.544Z,957.94
2017-09-22T06:19:32.534Z,957.9
2017-09-22T06:20:32.525Z,957.92
2017-09-22T06:21:32.514Z,957.95
2017-09-22T06:22:32.505Z,957.93
2017-09-22T06:23:32.497Z,957.92
2017-09-22T06:24:32.487Z,957.96
2017-09-22T06:25:32.477Z,958
2017-09-22T06:26:32.467Z,957.96
2017-09-22T06:27:32.459Z,958.01
2017-09-22T06:28:32.449Z,957.96
2017-09-22T06:29:32.438Z,957.99
2017-09-22T06:30:32.432Z,958.03
2017-09-22T06:31:32.441Z,958
2017-09-22T06:32:32.411Z,958.01
2017-09-22T06:33:32.411Z,958.01
2017-09-22T06:34:32.393Z,958.03
2017-09-22T06:35:32.382Z,958.01
2017-09-22T06:36:32.372Z,957.99
2017-09-22T06:37:32.364Z,958.01
2017-09-22T06:38:32.355Z,958.07
2017-09-22T06:39:32.346Z,958.05
2017-09-22T06:40:32.343Z,958.06
2017-09-22T06:41:32.327Z,958.01
2017-09-22T06:42:32.318Z,958.04
2017-09-22T06:43:32.310Z,958.04
2017-09-22T06:44:32.308Z,958.07
2017-09-22T06:45:32.313Z,958.1
2017-09-22T06:46:32.286Z,958.1
2017-09-22T06:47:32.275Z,958.09
2017-09-22T06:48:32.272Z,958.09
2017-09-22T06:49:32.277Z,958.16
2017-09-22T06:50:32.253Z,958.15
2017-09-22T06:51:32.241Z,958.16
2017-09-22T06:52:32.232Z,958.18
2017-09-22T06:53:32.223Z,958.21
2017-09-22T06:54:32.213Z,958.2
2017-09-22T06:55:32.206Z,958.24
2017-09-22T06:56:32.197Z,958.24
2017-09-22T06:57:32.188Z,958.26
2017-09-22T06:58:32.181Z,958.26
2017-09-22T06:59:32.173Z,958.24
2017-09-22T07:00:32.184Z,958.26
2017-09-22T07:01:32.155Z,958.26
2017-09-22T07:02:32.148Z,958.27
2017-09-22T07:03:32.159Z,958.3
2017-09-22T07:04:32.130Z,958.34
2017-09-22T07:05:32.122Z,958.31
2017-09-22T07:06:32.113Z,958.3
2017-09-22T07:07:32.105Z,958.3
2017-09-22T07:08:32.097Z,958.3
2017-09-22T07:09:32.089Z,958.3
2017-09-22T07:10:32.083Z,958.28
2017-09-22T07:11:32.075Z,958.31
2017-09-22T07:12:32.065Z,958.3
2017-09-22T07:13:32.057Z,958.3
2017-09-22T07:14:32.049Z,958.32
2017-09-22T07:15:32.040Z,958.3
2017-09-22T07:16:32.033Z,958.35
2017-09-22T07:17:32.024Z,958.35
2017-09-22T07:18:32.018Z,958.37
2017-09-22T07:19:32.007Z,958.4
2017-09-22T07:20:32.026Z,958.4
2017-09-22T07:21:31.993Z,958.42
2017-09-22T07:22:31.984Z,958.44
2017-09-22T07:23:31.976Z,958.46
2017-09-22T07:24:31.979Z,958.46
2017-09-22T07:25:31.960Z,958.47
2017-09-22T07:26:31.953Z,958.48
2017-09-22T07:27:31.944Z,958.53
2017-09-22T07:28:31.936Z,958.52
2017-09-22T07:29:31.928Z,958.54
2017-09-22T07:30:31.920Z,958.52
2017-09-22T07:31:31.912Z,958.5
2017-09-22T07:32:31.905Z,958.52
2017-09-22T07:33:31.897Z,958.49
2017-09-22T07:34:31.890Z,958.51
2017-09-22T07:35:31.899Z,958.53
2017-09-22T07:36:31.875Z,958.53
2017-09-22T07:37:31.867Z,958.52
2017-09-22T07:38:31.859Z,958.53
2017-09-22T07:39:31.852Z,958.53
2017-09-22T07:40:31.844Z,958.51
2017-09-22T07:41:31.833Z,958.54
2017-09-22T07:42:31.827Z,958.48
2017-09-22T07:43:31.820Z,958.55
2017-09-22T07:44:31.813Z,958.53
2017-09-22T07:45:31.809Z,958.53
2017-09-22T07:46:31.796Z,958.52
2017-09-22T07:47:31.790Z,958.54
2017-09-22T07:48:31.780Z,958.52
2017-09-22T07:49:31.774Z,958.54
2017-09-22T07:50:31.766Z,958.52
2017-09-22T07:51:31.758Z,958.53
2017-09-22T07:52:31.770Z,958.49
2017-09-22T07:53:31.747Z,958.53
2017-09-22T07:54:31.735Z,958.59
2017-09-22T07:55:31.725Z,958.54
2017-09-22T07:56:31.719Z,958.58
2017-09-22T07:57:31.711Z,958.6
2017-09-22T07:58:31.705Z,958.63
2017-09-22T07:59:31.696Z,958.61
2017-09-22T08:00:31.688Z,958.61
2017-09-22T08:01:31.682Z,958.62
2017-09-22T08:02:31.675Z,958.61
2017-09-22T08:03:31.667Z,958.59
2017-09-22T08:04:31.661Z,958.59
2017-09-22T08:05:31.652Z,958.55
2017-09-22T08:06:31.644Z,958.61
2017-09-22T08:07:31.636Z,958.62
2017-09-22T08:08:31.637Z,958.61
2017-09-22T08:09:31.622Z,958.6
2017-09-22T08:10:31.613Z,958.62
2017-09-22T08:11:31.607Z,958.62
2017-09-22T08:12:31.612Z,958.61
2017-09-22T08:13:31.591Z,958.63
2017-09-22T08:14:31.584Z,958.62
2017-09-22T08:15:31.576Z,958.63
2017-09-22T08:16:31.576Z,958.66
2017-09-22T08:17:31.563Z,958.66
2017-09-22T08:18:31.555Z,958.69
2017-09-22T08:19:31.547Z,958.68
2017-09-22T08:20:31.559Z,958.71
2017-09-22T08:21:31.534Z,958.69
2017-09-22T08:22:31.525Z,958.73
2017-09-22T08:23:31.520Z,958.75
2017-09-22T08:24:31.511Z,958.74
2017-09-22T08:25:31.506Z,958.74
2017-09-22T08:26:31.496Z,958.7
2017-09-22T08:27:31.488Z,958.72
2017-09-22T08:28:31.480Z,958.69
2017-09-22T08:29:31.474Z,958.77
2017-09-22T08:30:31.484Z,958.7
2017-09-22T08:31:31.458Z,958.7
2017-09-22T08:32:31.469Z,958.71
2017-09-22T08:33:31.443Z,958.73
2017-09-22T08:34:31.436Z,958.77
2017-09-22T08:35:31.429Z,958.74
2017-09-22T08:36:31.422Z,958.73
2017-09-22T08:37:31.414Z,958.7
2017-09-22T08:38:31.407Z,958.72
2017-09-22T08:39:31.399Z,958.74
2017-09-22T08:40:31.392Z,958.74
2017-09-22T08:41:31.384Z,958.75
2017-09-22T08:42:31.377Z,958.76
2017-09-22T08:43:31.369Z,958.76
2017-09-22T08:44:31.363Z,958.75
2017-09-22T08:45:31.355Z,958.76
2017-09-22T08:46:31.348Z,958.76
2017-09-22T08:47:31.340Z,958.81
2017-09-22T08:48:31.332Z,958.78
2017-09-22T08:49:31.326Z,958.8
2017-09-22T08:50:31.318Z,958.8
2017-09-22T08:51:31.311Z,958.8
2017-09-22T08:52:31.304Z,958.74
2017-09-22T08:53:31.296Z,958.8
2017-09-22T08:54:31.288Z,958.79
2017-09-22T08:55:31.281Z,958.79
2017-09-22T08:56:31.293Z,958.8
2017-09-22T08:57:31.267Z,958.81
2017-09-22T08:58:31.259Z,958.79
2017-09-22T08:59:31.253Z,958.83
2017-09-22T09:00:31.245Z,958.82
2017-09-22T09:01:31.235Z,958.84
2017-09-22T09:02:31.229Z,958.8
2017-09-22T09:03:31.221Z,958.81
2017-09-22T09:04:31.214Z,958.85
2017-09-22T09:05:31.230Z,958.83
2017-09-22T09:06:31.201Z,958.84
2017-09-22T09:07:31.192Z,958.83
2017-09-22T09:08:31.184Z,958.84
2017-09-22T09:09:31.178Z,958.84
2017-09-22T09:10:31.171Z,958.82
2017-09-22T09:11:31.164Z,958.84
2017-09-22T09:12:31.160Z,958.83
2017-09-22T09:13:31.163Z,958.86
2017-09-22T09:14:31.141Z,958.85
2017-09-22T09:15:31.133Z,958.86
2017-09-22T09:16:31.123Z,958.83
2017-09-22T09:17:31.117Z,958.9
2017-09-22T09:18:31.116Z,958.88
2017-09-22T09:19:31.101Z,958.85
2017-09-22T09:20:31.093Z,958.88
2017-09-22T09:21:31.086Z,958.84
2017-09-22T09:22:31.079Z,958.85
2017-09-22T09:23:31.071Z,958.84
2017-09-22T09:24:31.079Z,958.86
2017-09-22T09:25:31.056Z,958.87
2017-09-22T09:26:31.050Z,958.86
2017-09-22T09:27:31.041Z,958.86
2017-09-22T09:28:31.034Z,958.89
2017-09-22T09:29:31.029Z,958.88
2017-09-22T09:30:31.018Z,958.89
2017-09-22T09:31:31.012Z,958.86
2017-09-22T09:32:31.006Z,958.89
2017-09-22T09:33:30.997Z,958.89
2017-09-22T09:34:30.994Z,958.92
2017-09-22T09:35:30.980Z,958.92
2017-09-22T09:36:30.974Z,958.92
2017-09-22T09:37:30.967Z,958.94
2017-09-22T09:38:30.958Z,958.92
2017-09-22T09:39:30.952Z,958.93
2017-09-22T09:40:30.943Z,958.92
2017-09-22T09:41:30.936Z,958.92
2017-09-22T09:42:30.929Z,958.88
2017-09-22T09:43:30.925Z,958.88
2017-09-22T09:44:30.914Z,958.9
2017-09-22T09:45:30.906Z,958.85
2017-09-22T09:46:30.910Z,958.85
2017-09-22T09:47:30.894Z,958.89
2017-09-22T09:48:30.887Z,958.88
2017-09-22T09:49:30.879Z,958.84
2017-09-22T09:50:30.871Z,958.89
2017-09-22T09:51:30.864Z,958.84
2017-09-22T09:52:30.855Z,958.88
2017-09-22T09:53:30.849Z,958.87
2017-09-22T09:54:30.842Z,958.87
2017-09-22T09:55:30.835Z,958.85
2017-09-22T09:56:30.840Z,958.86
2017-09-22T09:57:30.820Z,958.82
2017-09-22T09:58:30.814Z,958.83
2017-09-22T09:59:30.809Z,958.83
2017-09-22T10:00:30.799Z,958.83
2017-09-22T10:01:30.793Z,958.83
2017-09-22T10:02:30.786Z,958.84
2017-09-22T10:03:30.778Z,958.85
2017-09-22T10:04:30.771Z,958.86
2017-09-22T10:05:30.764Z,958.86
2017-09-22T10:06:30.759Z,958.86
2017-09-22T10:07:30.751Z,958.81
2017-09-22T10:08:30.896Z,958.85
2017-09-22T10:09:30.736Z,958.8
2017-09-22T10:10:30.731Z,958.8
2017-09-22T10:11:30.725Z,958.82
2017-09-22T10:12:30.717Z,958.85
2017-09-22T10:13:30.711Z,958.79
2017-09-22T10:14:30.705Z,958.79
2017-09-22T10:15:30.697Z,958.81
2017-09-22T10:16:30.692Z,958.8
2017-09-22T10:17:30.685Z,958.82
2017-09-22T10:18:30.678Z,958.83
2017-09-22T10:19:30.672Z,958.85
2017-09-22T10:20:30.665Z,958.85
2017-09-22T10:21:30.659Z,958.84
2017-09-22T10:22:30.675Z,958.8
2017-09-22T10:23:30.646Z,958.8
2017-09-22T10:24:30.640Z,958.86
2017-09-22T10:25:30.634Z,958.85
2017-09-22T10:26:30.627Z,958.86
2017-09-22T10:27:30.622Z,958.83
2017-09-22T10:28:30.614Z,958.85
2017-09-22T10:29:30.608Z,958.86
2017-09-22T10:30:30.604Z,958.82
2017-09-22T10:31:30.598Z,958.87
2017-09-22T10:32:30.591Z,958.84
2017-09-22T10:33:30.584Z,958.85
2017-09-22T10:34:30.580Z,958.83
2017-09-22T10:35:30.575Z,958.84
2017-09-22T10:36:30.568Z,958.81
2017-09-22T10:37:30.561Z,958.81
2017-09-22T10:38:30.556Z,958.78
2017-09-22T10:39:30.567Z,958.8
2017-09-22T10:40:30.544Z,958.76
2017-09-22T10:41:30.539Z,958.74
2017-09-22T10:42:30.535Z,958.8
2017-09-22T10:43:30.527Z,958.79
2017-09-22T10:44:30.524Z,958.75
2017-09-22T10:45:30.518Z,958.82
2017-09-22T10:46:30.512Z,958.83
2017-09-22T10:47:30.506Z,958.84
2017-09-22T10:48:30.503Z,958.84
2017-09-22T10:49:30.496Z,958.84
2017-09-22T10:50:30.490Z,958.82
2017-09-22T10:51:30.486Z,958.81
2017-09-22T10:52:30.481Z,958.85
2017-09-22T10:53:30.476Z,958.85
2017-09-22T10:54:30.470Z,958.85
2017-09-22T10:55:30.467Z,958.86
2017-09-22T10:56:30.462Z,958.81
2017-09-22T10:57:30.461Z,958.86
2017-09-22T10:58:30.473Z,958.81
2017-09-22T10:59:30.447Z,958.82
2017-09-22T11:00:30.442Z,958.77
2017-09-22T11:01:30.439Z,958.8
2017-09-22T11:02:30.433Z,958.78
2017-09-22T11:03:30.431Z,958.76
2017-09-22T11:04:30.426Z,958.74
2017-09-22T11:05:30.420Z,958.7
2017-09-22T11:06:30.416Z,958.69
2017-09-22T11:07:30.411Z,958.72
2017-09-22T11:08:30.405Z,958.72
2017-09-22T11:09:30.401Z,958.72
2017-09-22T11:10:30.400Z,958.67
2017-09-22T11:11:30.393Z,958.67
2017-09-22T11:12:30.391Z,958.67
2017-09-22T11:13:30.394Z,958.7
2017-09-22T11:14:30.381Z,958.68
2017-09-22T11:15:30.378Z,958.69
2017-09-22T11:16:30.381Z,958.68
2017-09-22T11:17:30.369Z,958.67
2017-09-22T11:18:30.365Z,958.68
2017-09-22T11:19:30.384Z,958.68
2017-09-22T11:20:30.357Z,958.67
2017-09-22T11:21:30.353Z,958.67
2017-09-22T11:22:30.348Z,958.71
2017-09-22T11:23:30.346Z,958.71
2017-09-22T11:24:30.340Z,958.72
2017-09-22T11:25:30.335Z,958.71
2017-09-22T11:26:30.332Z,958.71
2017-09-22T11:27:30.328Z,958.72
2017-09-22T11:28:30.344Z,958.68
2017-09-22T11:29:30.320Z,958.69
2017-09-22T11:30:30.315Z,958.7
2017-09-22T11:31:30.312Z,958.7
2017-09-22T11:32:30.308Z,958.73
2017-09-22T11:33:30.303Z,958.73
2017-09-22T11:34:30.300Z,958.71
2017-09-22T11:35:30.295Z,958.69
2017-09-22T11:36:30.290Z,958.72
2017-09-22T11:37:30.288Z,958.73
2017-09-22T11:38:30.282Z,958.74
2017-09-22T11:39:30.279Z,958.71
2017-09-22T11:40:30.274Z,958.72
2017-09-22T11:41:30.292Z,958.73
2017-09-22T11:42:30.266Z,958.69
2017-09-22T11:43:30.267Z,958.71
2017-09-22T11:44:30.257Z,958.73
2017-09-22T11:45:30.253Z,958.72
2017-09-22T11:46:30.255Z,958.65
2017-09-22T11:47:30.245Z,958.67
2017-09-22T11:48:30.258Z,958.67
2017-09-22T11:49:30.236Z,958.66
2017-09-22T11:50:30.231Z,958.66
2017-09-22T11:51:30.228Z,958.65
2017-09-22T11:52:30.223Z,958.67
2017-09-22T11:53:30.228Z,958.62
2017-09-22T11:54:30.215Z,958.63
2017-09-22T11:55:30.211Z,958.64
2017-09-22T11:56:30.208Z,958.62
2017-09-22T11:57:30.224Z,958.6
2017-09-22T11:58:30.200Z,958.58
2017-09-22T11:59:30.194Z,958.62
2017-09-22T12:00:30.190Z,958.58
2017-09-22T12:01:30.185Z,958.61
2017-09-22T12:02:30.182Z,958.58
2017-09-22T12:03:30.180Z,958.57
2017-09-22T12:04:30.193Z,958.56
2017-09-22T12:05:30.170Z,958.57
2017-09-22T12:06:30.166Z,958.55
2017-09-22T12:07:30.161Z,958.55
2017-09-22T12:08:30.167Z,958.56
2017-09-22T12:09:30.152Z,958.51
2017-09-22T12:10:30.149Z,958.57
2017-09-22T12:11:30.144Z,958.56
2017-09-22T12:12:30.162Z,958.58
2017-09-22T12:13:30.134Z,958.55
2017-09-22T12:14:30.132Z,958.55
2017-09-22T12:15:30.126Z,958.54
2017-09-22T12:16:30.123Z,958.54
2017-09-22T12:17:30.125Z,958.58
2017-09-22T12:18:30.132Z,958.57
2017-09-22T12:19:30.114Z,958.54
2017-09-22T12:20:30.108Z,958.57
2017-09-22T12:21:30.108Z,958.58
2017-09-22T12:22:30.101Z,958.56
2017-09-22T12:23:30.098Z,958.56
2017-09-22T12:24:30.092Z,958.53
2017-09-22T12:25:30.088Z,958.51
2017-09-22T12:26:30.089Z,958.51
2017-09-22T12:27:30.083Z,958.52
2017-09-22T12:28:30.078Z,958.51
2017-09-22T12:29:30.072Z,958.49
2017-09-22T12:30:30.069Z,958.55
2017-09-22T12:31:30.066Z,958.55